Time;durP1;ratioP1;P1;durP2;ratioP2;P2;SDS_P1;SDS_P2;PMS_P1;PMS_P2;Temp;Humidity;BMP_temperature;BMP_pressure;BME280_temperature;BME280_humidity;BME280_pressure;Samples;Min_cycle;Max_cycle;Signal;HPM_P1;HPM_P2
2022/06/12 00:00:12;;;;;;;18.98;8.13;;;;;;;10.81;99.34;102110.56;10467854;28;20124;-76
2022/06/12 00:05:14;;;;;;;17.75;7.45;;;;;;;10.72;99.56;102114.38;10467443;28;20040;-76
2022/06/12 00:10:15;;;;;;;17.67;6.38;;;;;;;10.64;99.90;102115.56;10466320;28;20036;-75
2022/06/12 00:15:18;;;;;;;13.75;8.20;;;;;;;10.49;100.00;102115.44;10438769;28;20247;-76
2022/06/12 00:20:18;;;;;;;20.52;8.90;;;;;;;10.43;100.00;102109.78;10417188;28;20484;-76
2022/06/12 00:25:20;;;;;;;11.18;6.47;;;;;;;10.35;100.00;102105.69;10440746;28;20048;-75
2022/06/12 00:30:22;;;;;;;14.70;7.10;;;;;;;10.18;100.00;102112.41;10466957;28;20047;-77
2022/06/12 00:35:26;;;;;;;14.33;6.00;;;;;;;10.04;100.00;102114.97;10434683;28;20037;-76
2022/06/12 00:40:26;;;;;;;15.20;6.90;;;;;;;10.05;100.00;102113.25;10442154;28;20439;-77
2022/06/12 00:45:43;;;;;;;16.55;8.98;;;;;;;9.87;100.00;102116.38;10457370;28;20130;-76
2022/06/12 00:50:50;;;;;;;19.15;8.20;;;;;;;9.80;100.00;102114.13;10450562;28;20503;-77
2022/06/12 00:56:02;;;;;;;19.38;8.35;;;;;;;9.73;100.00;102115.41;10446784;28;20029;-76
2022/06/12 01:01:03;;;;;;;16.10;8.30;;;;;;;9.76;100.00;102115.63;10424973;28;20041;-77
2022/06/12 01:11:23;;;;;;;20.80;9.45;;;;;;;9.72;100.00;102120.53;10396791;28;20044;-76
2022/06/12 01:16:23;;;;;;;11.70;6.05;;;;;;;9.61;100.00;102118.03;10391062;28;20519;-77
2022/06/12 01:21:58;;;;;;;18.42;9.35;;;;;;;9.48;100.00;102125.81;10423068;28;20190;-77
2022/06/12 01:27:24;;;;;;;22.60;8.15;;;;;;;9.39;100.00;102120.84;10488509;28;20029;-76
2022/06/12 01:32:41;;;;;;;15.85;7.22;;;;;;;9.33;100.00;102120.38;10459626;28;20044;-77
2022/06/12 01:37:56;;;;;;;15.90;8.07;;;;;;;9.40;100.00;102123.53;10457643;28;20052;-77
2022/06/12 01:43:11;;;;;;;14.38;7.63;;;;;;;9.43;100.00;102125.50;10472749;28;20391;-76
2022/06/12 01:48:28;;;;;;;15.25;7.95;;;;;;;9.37;100.00;102125.94;10472849;28;20064;-77
2022/06/12 01:53:46;;;;;;;18.45;9.07;;;;;;;9.29;100.00;102116.63;10432470;28;20049;-77
2022/06/12 01:59:08;;;;;;;17.25;9.27;;;;;;;9.32;100.00;102119.47;10396411;28;20522;-77
2022/06/12 02:04:15;;;;;;;24.60;10.87;;;;;;;9.24;100.00;102113.69;10491273;28;20062;-76
2022/06/12 02:09:39;;;;;;;20.52;12.45;;;;;;;9.20;100.00;102113.34;10443501;28;20310;-77
2022/06/12 02:14:45;;;;;;;21.98;9.82;;;;;;;9.08;100.00;102114.25;10444636;28;20040;-77
2022/06/12 02:19:46;;;;;;;19.58;11.35;;;;;;;9.08;100.00;102108.16;10455210;28;20044;-77
2022/06/12 02:24:50;;;;;;;18.90;9.82;;;;;;;9.09;100.00;102103.00;10454846;28;20044;-77
2022/06/12 02:29:58;;;;;;;21.73;11.23;;;;;;;8.99;100.00;102115.31;10454096;28;20037;-77
2022/06/12 02:35:01;;;;;;;23.63;13.55;;;;;;;8.96;100.00;102105.53;10454038;28;20127;-77
2022/06/12 02:40:12;;;;;;;17.60;11.15;;;;;;;9.07;100.00;102101.09;10453342;28;20044;-77
2022/06/12 02:45:20;;;;;;;36.55;11.73;;;;;;;9.06;100.00;102104.50;10453959;28;20040;-77
2022/06/12 02:50:22;;;;;;;29.73;14.38;;;;;;;9.09;100.00;102099.50;10470464;28;20048;-77
2022/06/12 02:55:38;;;;;;;31.57;14.80;;;;;;;9.07;100.00;102093.28;10469278;28;20051;-78
2022/06/12 03:00:53;;;;;;;25.80;16.75;;;;;;;8.98;100.00;102108.25;10461116;28;20094;-77
2022/06/12 03:05:57;;;;;;;22.88;13.52;;;;;;;8.91;100.00;102096.44;10438601;28;20040;-77
2022/06/12 03:11:02;;;;;;;20.58;12.38;;;;;;;8.92;100.00;102096.56;10432503;28;20033;-77
2022/06/12 03:16:17;;;;;;;24.27;14.30;;;;;;;8.88;100.00;102099.75;10445600;28;20548;-77
2022/06/12 03:21:38;;;;;;;24.33;13.60;;;;;;;8.84;100.00;102102.00;10453456;28;20060;-77
2022/06/12 03:27:15;;;;;;;32.13;12.50;;;;;;;8.79;100.00;102122.56;10487316;28;20124;-77
2022/06/12 03:32:21;;;;;;;34.95;14.27;;;;;;;8.74;100.00;102126.53;10484557;28;20442;-78
2022/06/12 03:37:28;;;;;;;22.50;13.50;;;;;;;8.73;100.00;102125.59;10486314;28;20040;-76
2022/06/12 03:42:44;;;;;;;26.02;14.80;;;;;;;8.63;100.00;102131.84;10485972;28;20056;-76
2022/06/12 03:47:56;;;;;;;27.83;16.02;;;;;;;8.68;100.00;102128.66;10428710;28;20141;-76
2022/06/12 03:53:05;;;;;;;23.05;14.18;;;;;;;8.71;100.00;102131.50;10451849;28;20048;-76
2022/06/12 03:58:06;;;;;;;25.65;15.50;;;;;;;8.73;100.00;102124.69;10452767;28;20036;-74
2022/06/12 04:03:15;;;;;;;20.92;13.65;;;;;;;8.81;100.00;102129.69;10443669;28;20044;-76
2022/06/12 04:08:19;;;;;;;25.42;17.20;;;;;;;8.91;100.00;102125.16;10465618;28;20052;-75
2022/06/12 04:13:20;;;;;;;24.00;15.75;;;;;;;8.92;100.00;102129.59;10426957;28;20041;-75
2022/06/12 04:18:24;;;;;;;26.90;13.35;;;;;;;8.89;100.00;102111.09;10436172;28;20105;-75
2022/06/12 04:24:03;;;;;;;29.13;16.05;;;;;;;9.14;100.00;102111.22;10450664;28;20123;-77
2022/06/12 04:29:12;;;;;;;33.05;14.88;;;;;;;9.55;100.00;102121.16;10414829;28;20040;-77
2022/06/12 04:34:17;;;;;;;22.45;12.55;;;;;;;9.76;100.00;102118.25;10482666;28;20040;-76
2022/06/12 04:39:23;;;;;;;20.92;10.85;;;;;;;10.15;100.00;102123.53;10450004;28;20044;-76
2022/06/12 04:44:24;;;;;;;16.45;10.52;;;;;;;10.42;100.00;102115.81;10384050;28;20025;-76
2022/06/12 04:49:27;;;;;;;18.25;10.85;;;;;;;10.61;100.00;102120.59;10406541;28;20059;-78
2022/06/12 04:54:28;;;;;;;17.30;7.88;;;;;;;11.00;100.00;102129.31;10441431;28;20112;-78
2022/06/12 04:59:28;;;;;;;14.95;7.30;;;;;;;11.63;99.96;102118.44;10422062;28;20044;-79
2022/06/12 05:04:29;;;;;;;12.18;5.75;;;;;;;12.25;97.02;102116.16;10457992;28;20071;-80
2022/06/12 05:09:33;;;;;;;9.27;5.05;;;;;;;12.72;89.50;102123.34;10410222;28;20056;-78
2022/06/12 05:14:35;;;;;;;11.45;4.82;;;;;;;13.51;85.83;102119.06;10423881;28;20091;-79
2022/06/12 05:19:36;;;;;;;10.73;5.03;;;;;;;14.19;81.95;102117.44;10446445;28;20488;-77
2022/06/12 05:24:37;;;;;;;10.70;4.38;;;;;;;15.14;77.97;102113.44;10461595;28;20045;-79
2022/06/12 05:29:38;;;;;;;8.73;5.88;;;;;;;16.07;73.03;102125.69;10445749;28;20446;-77
2022/06/12 05:34:39;;;;;;;14.33;4.50;;;;;;;16.68;71.24;102121.31;10464010;28;20094;-78
2022/06/12 05:39:40;;;;;;;9.60;4.40;;;;;;;17.25;68.24;102109.56;10448752;28;20095;-78
2022/06/12 05:44:40;;;;;;;12.83;4.17;;;;;;;17.79;64.08;102122.22;10451341;28;20090;-77
2022/06/12 05:49:41;;;;;;;12.27;4.53;;;;;;;18.08;63.43;102124.19;10463611;28;20059;-75
2022/06/12 05:54:42;;;;;;;9.27;3.83;;;;;;;18.32;61.97;102121.50;10462833;28;20051;-76
2022/06/12 05:59:42;;;;;;;10.70;4.25;;;;;;;18.52;59.46;102123.97;10464367;28;20047;-74
2022/06/12 06:04:43;;;;;;;5.73;3.00;;;;;;;18.74;57.61;102118.56;10463677;28;20498;-75
2022/06/12 06:09:44;;;;;;;12.53;3.17;;;;;;;19.17;56.97;102121.78;10450782;28;20531;-76
2022/06/12 06:14:44;;;;;;;8.07;3.37;;;;;;;19.99;54.32;102126.03;10468029;28;20040;-76
2022/06/12 06:19:45;;;;;;;11.10;3.53;;;;;;;20.54;52.18;102129.28;10488427;28;20045;-75
2022/06/12 06:24:45;;;;;;;7.63;2.77;;;;;;;20.57;50.58;102131.16;10488544;28;20044;-76
2022/06/12 06:29:46;;;;;;;11.60;4.73;;;;;;;20.71;51.72;102127.94;10486913;28;20090;-76
2022/06/12 06:34:46;;;;;;;13.13;3.20;;;;;;;20.75;50.33;102121.84;10469756;28;20072;-79
2022/06/12 06:39:47;;;;;;;11.07;3.80;;;;;;;21.10;50.64;102133.38;10471614;28;22164;-77
2022/06/12 06:50:08;;;;;;;9.90;4.82;;;;;;;22.20;47.16;102126.88;10487967;28;20040;-77
2022/06/12 06:55:09;;;;;;;6.60;2.75;;;;;;;22.56;46.45;102133.81;10470501;28;20024;-78
2022/06/12 07:00:12;;;;;;;12.07;4.43;;;;;;;22.46;47.39;102133.63;10452570;28;20032;-77
2022/06/12 07:05:13;;;;;;;10.73;4.55;;;;;;;22.40;47.77;102134.38;10470026;28;20449;-78
2022/06/12 07:10:16;;;;;;;12.93;4.47;;;;;;;23.06;45.33;102134.66;10487860;28;20029;-78
2022/06/12 07:15:17;;;;;;;23.08;4.80;;;;;;;22.81;47.45;102125.34;10486198;28;20086;-78
2022/06/12 07:20:19;;;;;;;12.37;4.83;;;;;;;23.01;47.41;102128.34;10468425;28;20040;-78
2022/06/12 07:25:19;;;;;;;;;;;;;;;23.30;47.23;102133.25;10410438;28;20068;-78
2022/06/12 07:30:20;;;;;;;10.10;5.10;;;;;;;23.71;47.79;102130.25;10371985;28;20007;-78
2022/06/12 07:35:21;;;;;;;;;;;;;;;24.79;43.16;102127.00;10412611;28;20038;-78
2022/06/12 07:40:23;;;;;;;9.20;5.23;;;;;;;24.40;47.32;102131.09;10412698;28;19940;-78
2022/06/12 07:45:24;;;;;;;12.50;4.32;;;;;;;24.85;43.77;102132.41;10452628;28;20032;-78
2022/06/12 07:50:26;;;;;;;16.15;5.68;;;;;;;24.89;45.46;102131.56;10479743;28;20368;-75
2022/06/12 07:55:26;;;;;;;9.70;4.05;;;;;;;24.91;45.36;102136.94;10434966;28;20048;-76
2022/06/12 08:00:28;;;;;;;16.00;4.40;;;;;;;26.00;42.94;102117.00;10464285;28;20044;-75
2022/06/12 08:05:29;;;;;;;11.80;4.95;;;;;;;26.00;41.75;102133.09;10466222;28;20124;-76
2022/06/12 08:10:30;;;;;;;13.40;4.68;;;;;;;25.01;45.70;102141.47;10430864;28;20514;-77
2022/06/12 08:15:31;;;;;;;12.73;5.87;;;;;;;25.56;45.33;102137.41;10482126;28;20045;-76
2022/06/12 08:20:33;;;;;;;20.03;5.83;;;;;;;26.33;41.74;102135.91;10465577;28;20145;-76
2022/06/12 08:25:34;;;;;;;10.95;4.45;;;;;;;26.78;41.38;102130.56;10439673;28;20044;-74
2022/06/12 08:30:35;;;;;;;10.60;4.40;;;;;;;27.25;40.20;102129.66;10443273;28;20036;-74
2022/06/12 08:35:36;;;;;;;10.10;5.20;;;;;;;26.31;43.43;102125.16;10461124;28;20500;-74
2022/06/12 08:40:49;;;;;;;19.92;5.93;;;;;;;27.59;38.81;102117.97;10480760;28;20041;-76
2022/06/12 08:45:50;;;;;;;14.93;5.30;;;;;;;27.49;39.32;102117.06;10476421;28;20123;-75
2022/06/12 08:50:53;;;;;;;;;;;;;;;28.25;40.94;102107.75;10459325;28;20044;-76
2022/06/12 08:56:21;;;;;;;15.50;7.05;;;;;;;27.67;39.76;102116.13;10440273;28;19924;-76
2022/06/12 09:01:22;;;;;;;19.17;5.30;;;;;;;27.57;39.29;102103.63;10453103;28;20065;-74
2022/06/12 09:06:34;;;;;;;17.02;5.97;;;;;;;27.38;38.86;102102.75;10443424;28;20127;-76
2022/06/12 09:17:43;;;;;;;13.40;5.80;;;;;;;28.62;37.91;102088.63;10376125;28;20120;-77
2022/06/12 09:23:19;;;;;;;11.00;4.22;;;;;;;27.72;37.44;102083.81;10463955;28;20040;-77
2022/06/12 09:28:40;;;;;;;10.43;5.60;;;;;;;28.39;36.78;102078.06;10442436;28;20049;-77
2022/06/12 09:33:53;;;;;;;15.25;6.72;;;;;;;28.58;38.16;102073.41;10430229;28;20446;-78
2022/06/12 09:39:16;;;;;;;22.15;20.15;;;;;;;29.96;35.66;102070.97;10477428;28;20040;-77
2022/06/12 09:44:35;;;;;;;24.17;5.47;;;;;;;30.64;32.89;102069.06;10459907;28;20435;-80
2022/06/12 09:49:50;;;;;;;16.80;4.88;;;;;;;27.76;40.71;102069.47;10429410;28;20045;-82
2022/06/12 09:55:12;;;;;;;8.18;4.50;;;;;;;25.18;43.33;102073.75;10423461;28;20045;-80
2022/06/12 10:00:21;;;;;;;9.93;2.88;;;;;;;27.86;40.32;102064.94;10470780;28;20048;-80
2022/06/12 10:06:09;;;;;;;12.57;3.42;;;;;;;27.66;37.94;102065.94;10472600;28;20089;-80
2022/06/12 10:11:13;;;;;;;10.45;4.32;;;;;;;25.04;42.75;102076.31;10353256;28;20041;-79
2022/06/12 10:16:18;;;;;;;11.85;5.10;;;;;;;24.95;46.56;102076.25;10426411;28;20040;-79
2022/06/12 10:21:21;;;;;;;10.50;4.03;;;;;;;28.81;36.13;102061.56;10446945;28;20404;-78
2022/06/12 10:26:25;;;;;;;12.98;4.22;;;;;;;27.46;38.82;102060.59;10409681;28;20441;-78
2022/06/12 10:31:26;;;;;;;22.80;4.03;;;;;;;28.07;39.76;102054.94;10374806;28;20034;-77
2022/06/12 10:36:29;;;;;;;10.63;3.70;;;;;;;26.45;38.24;102057.19;10398807;28;20398;-77
2022/06/12 10:41:29;;;;;;;9.55;3.95;;;;;;;26.51;38.36;102055.41;10401602;28;20095;-77
2022/06/12 10:46:31;;;;;;;7.55;3.58;;;;;;;26.70;38.27;102051.81;10386226;28;20452;-77
2022/06/12 10:51:35;;;;;;;7.50;4.70;;;;;;;25.59;39.85;102043.59;10404550;28;20061;-77
2022/06/12 10:56:50;;;;;;;10.07;3.55;;;;;;;23.95;42.84;102055.72;10403989;28;20501;-77
2022/06/12 11:01:51;;;;;;;11.82;3.50;;;;;;;24.16;43.27;102039.94;10397684;28;20041;-75
2022/06/12 11:07:10;;;;;;;7.80;3.90;;;;;;;25.91;43.46;102044.56;10399892;28;20103;-75
2022/06/12 11:12:14;;;;;;;10.10;4.68;;;;;;;24.43;42.00;102045.50;10463663;28;20047;-75
2022/06/12 11:17:22;;;;;;;8.57;3.80;;;;;;;23.59;45.87;102041.94;10464809;28;20036;-75
2022/06/12 11:22:42;;;;;;;9.82;2.83;;;;;;;26.97;38.00;102026.75;10469238;28;20028;-75
2022/06/12 11:27:55;;;;;;;9.40;2.50;;;;;;;25.09;40.78;102037.06;10457030;28;20072;-75
2022/06/12 11:33:50;;;;;;;18.88;4.40;;;;;;;23.88;42.84;102038.69;10437316;28;20045;-75
2022/06/12 11:38:54;;;;;;;7.22;2.58;;;;;;;22.57;44.86;102036.91;10435510;28;20159;-75
2022/06/12 11:44:18;;;;;;;8.55;3.55;;;;;;;21.97;47.53;102020.72;10422030;28;20434;-75
2022/06/12 11:49:45;;;;;;;7.32;2.90;;;;;;;24.83;43.97;102023.53;10465747;28;20119;-75
2022/06/12 11:55:04;;;;;;;10.80;3.53;;;;;;;26.48;40.35;102007.09;10424806;28;20044;-74
2022/06/12 12:00:43;;;;;;;8.48;3.67;;;;;;;27.36;37.76;102007.78;10462768;28;20040;-77
2022/06/12 12:05:49;;;;;;;11.93;3.78;;;;;;;26.78;37.56;102004.38;10308601;28;20071;-76
2022/06/12 12:11:29;;;;;;;4.65;2.15;;;;;;;26.88;36.25;102005.28;10433108;28;20060;-76
2022/06/12 12:17:03;;;;;;;9.45;3.00;;;;;;;26.80;40.21;102002.56;10457728;28;20043;-77
2022/06/12 12:22:07;;;;;;;12.57;4.95;;;;;;;27.78;34.96;101986.97;10466819;28;20457;-78
2022/06/12 12:27:18;;;;;;;8.77;3.20;;;;;;;26.41;36.61;102001.72;10459600;28;20029;-77
2022/06/12 12:32:18;;;;;;;11.15;2.85;;;;;;;24.24;40.79;102002.53;10418641;28;20119;-77
2022/06/12 12:42:38;;;;;;;6.35;2.45;;;;;;;22.94;42.79;102006.31;10419665;28;20056;-77
2022/06/12 12:47:39;;;;;;;9.20;4.57;;;;;;;25.99;38.43;101994.53;10389495;28;20045;-77
2022/06/12 12:52:43;;;;;;;12.47;3.53;;;;;;;29.05;33.67;101974.19;10451370;28;20287;-76
2022/06/12 12:57:44;;;;;;;6.97;2.88;;;;;;;27.93;32.82;101980.63;10451396;28;20496;-76
2022/06/12 13:02:56;;;;;;;7.67;3.27;;;;;;;27.83;34.12;101981.59;10457847;28;20056;-76
2022/06/12 13:08:12;;;;;;;;;;;;;;;27.04;33.51;101965.81;10424196;28;20644;-75
2022/06/12 13:13:32;;;;;;;9.23;3.95;;;;;;;25.02;37.45;101979.00;10415720;28;20015;-76
2022/06/12 13:18:48;;;;;;;11.15;2.80;;;;;;;24.01;40.25;101963.13;10429196;28;20044;-75
2022/06/12 13:23:48;;;;;;;6.85;2.10;;;;;;;26.97;35.68;101949.72;10433954;28;20045;-76
2022/06/12 13:28:54;;;;;;;13.67;3.80;;;;;;;26.38;34.71;101946.28;10437824;28;20049;-76
2022/06/12 13:33:56;;;;;;;13.55;4.07;;;;;;;25.06;38.67;101946.00;10456094;28;20041;-75
2022/06/12 13:39:06;;;;;;;7.80;2.58;;;;;;;27.13;34.69;101943.41;10469988;28;20032;-78
2022/06/12 13:44:31;;;;;;;7.22;2.95;;;;;;;27.33;35.07;101930.78;10486993;28;20040;-77
2022/06/12 13:49:41;;;;;;;8.57;3.63;;;;;;;25.72;36.61;101939.97;10421628;28;20476;-76
2022/06/12 13:54:43;;;;;;;6.57;3.78;;;;;;;26.00;36.58;101929.28;10461548;28;20563;-76
2022/06/12 13:59:45;;;;;;;7.07;2.78;;;;;;;25.67;35.95;101923.00;10463308;28;20039;-75
2022/06/12 14:04:55;;;;;;;4.78;2.55;;;;;;;24.63;38.74;101919.91;10447279;28;20048;-76
2022/06/12 14:10:01;;;;;;;7.40;2.75;;;;;;;25.35;35.90;101910.41;10461407;28;20516;-76
2022/06/12 14:15:02;;;;;;;6.47;3.03;;;;;;;23.59;39.27;101905.66;10446322;28;20032;-74
2022/06/12 14:20:21;;;;;;;5.10;2.43;;;;;;;22.68;42.63;101900.13;10461156;28;20044;-74
2022/06/12 14:25:35;;;;;;;6.93;3.25;;;;;;;23.07;43.33;101904.19;10455665;28;20496;-73
2022/06/12 14:31:06;;;;;;;6.95;2.72;;;;;;;23.11;40.89;101900.66;10484623;28;20058;-73
2022/06/12 14:36:09;;;;;;;6.70;2.95;;;;;;;22.45;42.50;101900.69;10460940;28;20049;-75
2022/06/12 14:41:19;;;;;;;7.30;3.40;;;;;;;22.67;43.35;101891.22;10441597;28;20040;-73
2022/06/12 14:46:25;;;;;;;7.57;2.70;;;;;;;24.18;39.32;101874.13;10449264;28;20423;-74
2022/06/12 14:51:25;;;;;;;7.43;2.10;;;;;;;23.18;39.17;101874.94;10425793;28;20036;-75
2022/06/12 14:56:28;;;;;;;8.57;3.60;;;;;;;23.84;43.44;101882.75;10439871;28;20460;-74
2022/06/12 15:01:28;;;;;;;6.90;2.85;;;;;;;24.23;40.63;101866.16;10453878;28;20037;-77
2022/06/12 15:06:29;;;;;;;11.27;4.53;;;;;;;24.04;42.37;101884.72;10472007;28;20136;-75
2022/06/12 15:11:29;;;;;;;8.33;3.80;;;;;;;23.18;43.18;101877.63;10465238;28;20093;-75
2022/06/12 15:16:31;;;;;;;11.40;4.23;;;;;;;22.21;45.18;101880.75;10484365;28;20040;-75
2022/06/12 15:21:34;;;;;;;11.80;4.00;;;;;;;21.76;45.17;101884.44;10442420;28;20492;-74
2022/06/12 15:31:54;;;;;;;8.70;3.60;;;;;;;22.93;44.62;101864.00;10457063;28;20059;-76
2022/06/12 15:36:55;;;;;;;14.27;5.63;;;;;;;22.80;45.90;101857.59;10456963;28;20057;-76
2022/06/12 15:41:55;;;;;;;4.30;3.67;;;;;;;23.10;45.03;101857.94;10450396;28;20070;-74
2022/06/12 15:46:56;;;;;;;5.67;3.07;;;;;;;22.63;45.83;101861.81;10459571;28;20400;-73
2022/06/12 15:51:56;;;;;;;4.50;2.77;;;;;;;22.44;46.42;101862.47;10401638;28;20044;-75
2022/06/12 15:56:57;;;;;;;27.07;5.70;;;;;;;22.70;46.47;101853.00;10424713;28;20116;-74
2022/06/12 16:01:58;;;;;;;5.60;4.23;;;;;;;22.46;45.25;101853.59;10424853;28;20439;-74
2022/06/12 16:06:59;;;;;;;16.40;15.32;;;;;;;22.14;46.76;101858.44;10424703;28;20489;-75
2022/06/12 16:11:59;;;;;;;6.63;5.17;;;;;;;21.86;46.24;101849.09;10471229;28;20065;-75
2022/06/12 16:17:00;;;;;;;9.43;8.47;;;;;;;21.69;48.64;101851.50;10484261;28;20508;-75
2022/06/12 16:22:00;;;;;;;5.93;3.00;;;;;;;21.21;49.27;101848.81;10484819;28;20444;-74
2022/06/12 16:27:01;;;;;;;7.53;4.97;;;;;;;21.47;47.53;101843.09;10466873;28;20032;-74
2022/06/12 16:32:03;;;;;;;3.10;2.20;;;;;;;21.46;49.57;101843.94;10483735;28;20059;-73
2022/06/12 16:37:04;;;;;;;;;;;;;;;21.26;47.51;101843.56;10483538;28;20074;-72
2022/06/12 16:42:04;;;;;;;8.45;5.55;;;;;;;21.12;48.34;101841.53;10483131;28;19924;-74
2022/06/12 16:47:05;;;;;;;22.33;14.45;;;;;;;21.04;49.50;101843.16;10467337;28;20120;-72
2022/06/12 16:52:07;;;;;;;38.28;34.97;;;;;;;21.05;49.71;101842.28;10483333;28;20041;-75
2022/06/12 16:57:10;;;;;;;2.40;0.70;;;;;;;21.41;48.98;101846.53;10482713;28;20052;-76
2022/06/12 17:02:11;;;;;;;3.42;1.73;;;;;;;21.11;48.32;101842.41;10483811;28;20098;-76
2022/06/12 17:07:16;;;;;;;5.05;2.28;;;;;;;20.51;49.48;101844.69;10484044;28;20136;-76
2022/06/12 17:12:17;;;;;;;5.28;2.00;;;;;;;20.07;50.43;101848.13;10433989;28;20503;-76
2022/06/12 17:17:18;;;;;;;5.40;2.25;;;;;;;19.51;52.31;101852.03;10439741;28;20043;-76
2022/06/12 17:22:19;;;;;;;5.22;1.73;;;;;;;19.25;53.44;101869.88;10441258;28;20029;-75
2022/06/12 17:27:19;;;;;;;3.60;1.40;;;;;;;19.19;51.17;101875.03;10440439;28;20124;-76
2022/06/12 17:32:20;;;;;;;17.98;14.15;;;;;;;19.25;50.81;101872.53;10437994;28;20037;-76
2022/06/12 17:37:25;;;;;;;4.38;1.52;;;;;;;19.23;51.60;101866.28;10423621;28;20106;-76
2022/06/12 17:42:26;;;;;;;3.22;1.52;;;;;;;18.93;50.83;101872.47;10441992;28;20037;-80
2022/06/12 17:47:26;;;;;;;4.72;2.13;;;;;;;18.52;52.15;101874.78;10406137;28;20040;-78
2022/06/12 17:52:27;;;;;;;5.63;3.28;;;;;;;18.40;53.29;101868.25;10430732;28;20037;-78
2022/06/12 17:57:27;;;;;;;4.03;2.05;;;;;;;18.15;53.69;101875.44;10423913;28;20116;-78
2022/06/12 18:02:28;;;;;;;4.15;1.98;;;;;;;18.09;54.20;101882.28;10422133;28;20051;-77
2022/06/12 18:07:29;;;;;;;5.75;3.17;;;;;;;18.04;54.69;101880.38;10421209;28;20080;-78
2022/06/12 18:12:29;;;;;;;4.57;2.08;;;;;;;18.08;54.80;101880.50;10406805;28;20125;-78
2022/06/12 18:22:49;;;;;;;9.43;2.00;;;;;;;17.93;53.57;101887.03;10415361;28;20037;-77
2022/06/12 18:27:50;;;;;;;5.53;2.95;;;;;;;17.90;53.93;101879.88;10419601;28;20033;-77
2022/06/12 18:32:50;;;;;;;4.20;1.95;;;;;;;17.76;53.75;101879.44;10380439;28;20033;-78
2022/06/12 18:37:51;;;;;;;6.38;1.80;;;;;;;17.61;55.49;101882.44;10370932;28;20037;-78
2022/06/12 18:42:51;;;;;;;6.93;2.45;;;;;;;17.42;56.21;101865.03;10390392;28;20041;-78
2022/06/12 18:47:52;;;;;;;7.57;3.08;;;;;;;17.37;55.35;101863.97;10372213;28;20466;-78
2022/06/12 18:52:53;;;;;;;10.32;2.92;;;;;;;17.23;56.02;101868.75;10379841;28;20046;-77
2022/06/12 18:57:53;;;;;;;5.95;2.15;;;;;;;17.09;56.56;101868.25;10383234;28;20152;-78
2022/06/12 19:02:54;;;;;;;5.70;1.48;;;;;;;16.98;56.95;101866.97;10360398;28;20136;-78
2022/06/12 19:07:54;;;;;;;9.48;3.17;;;;;;;16.92;57.07;101864.06;10419438;28;20078;-78
2022/06/12 19:12:55;;;;;;;5.78;2.10;;;;;;;16.79;57.50;101860.94;10468574;28;20036;-78
2022/06/12 19:17:55;;;;;;;6.53;2.88;;;;;;;16.67;57.69;101863.13;10467161;28;20115;-78
2022/06/12 19:22:56;;;;;;;4.38;2.03;;;;;;;16.55;58.28;101855.59;10465664;28;20032;-78
2022/06/12 19:27:57;;;;;;;5.60;2.85;;;;;;;16.40;58.60;101863.84;10408925;28;20049;-78
2022/06/12 19:32:58;;;;;;;6.70;2.50;;;;;;;16.16;59.37;101875.22;10474368;28;20051;-78
2022/06/12 19:37:59;;;;;;;8.65;3.60;;;;;;;15.94;60.09;101890.19;10438708;28;20488;-78
2022/06/12 19:42:59;;;;;;;4.60;2.50;;;;;;;15.70;60.41;101887.34;10461984;28;20053;-79
2022/06/12 19:48:00;;;;;;;10.15;2.97;;;;;;;15.43;61.24;101890.59;10466450;28;20033;-78
2022/06/12 19:53:02;;;;;;;6.75;2.78;;;;;;;15.07;62.94;101891.66;10466612;28;20063;-78
2022/06/12 19:58:04;;;;;;;7.60;3.22;;;;;;;14.75;64.19;101908.59;10466039;28;20041;-78
2022/06/12 20:03:04;;;;;;;7.63;2.60;;;;;;;14.52;65.19;101908.38;10429258;28;20485;-77
2022/06/12 20:08:05;;;;;;;226.10;176.63;;;;;;;14.26;68.33;101907.13;10463901;28;20123;-78
2022/06/12 20:13:05;;;;;;;191.32;175.18;;;;;;;14.02;68.88;101907.72;10465428;28;20175;-78
2022/06/12 20:18:17;;;;;;;226.60;205.32;;;;;;;13.75;68.77;101905.50;10449524;28;20037;-78
2022/06/12 20:23:20;;;;;;;65.47;49.27;;;;;;;13.46;70.86;101915.41;10451546;28;20431;-79
2022/06/12 20:28:21;;;;;;;8.55;2.78;;;;;;;13.14;72.11;101917.19;10466369;28;20117;-79
2022/06/12 20:33:22;;;;;;;700.45;254.02;;;;;;;12.89;74.68;101911.50;10464252;28;20131;-78
2022/06/12 20:38:22;;;;;;;6.38;4.75;;;;;;;12.66;74.51;101920.75;10466352;28;20041;-78
2022/06/12 20:43:24;;;;;;;8.23;3.47;;;;;;;12.51;75.39;101923.38;10482880;28;20090;-78
2022/06/12 20:48:25;;;;;;;8.95;2.75;;;;;;;12.47;74.69;101916.16;10464882;28;20036;-78
2022/06/12 20:53:27;;;;;;;8.55;2.65;;;;;;;12.44;74.96;101924.78;10404752;28;20059;-78
2022/06/12 20:58:27;;;;;;;6.90;2.88;;;;;;;12.62;73.50;101922.28;10465254;28;20032;-78
2022/06/12 21:03:28;;;;;;;5.65;2.40;;;;;;;12.67;72.21;101933.06;10462307;28;20048;-79
2022/06/12 21:08:28;;;;;;;5.05;2.47;;;;;;;12.70;71.40;101929.69;10431813;28;20072;-80
2022/06/12 21:13:29;;;;;;;16.10;2.60;;;;;;;12.63;72.46;101937.22;10465458;28;20036;-79
2022/06/12 21:18:29;;;;;;;9.60;3.65;;;;;;;12.50;71.96;101932.09;10482120;28;20119;-79
2022/06/12 21:23:30;;;;;;;13.98;3.47;;;;;;;12.31;73.29;101938.91;10463604;28;20539;-79
2022/06/12 21:28:30;;;;;;;9.73;2.95;;;;;;;11.99;75.82;101935.28;10483258;28;20044;-79
2022/06/12 21:33:31;;;;;;;5.50;3.15;;;;;;;11.82;77.64;101926.41;10447659;28;20124;-79
2022/06/12 21:38:32;;;;;;;5.85;3.00;;;;;;;11.62;78.14;101930.47;10464738;28;20056;-79
2022/06/12 21:43:32;;;;;;;8.75;2.72;;;;;;;11.41;80.15;101937.94;10452517;28;20037;-79
2022/06/12 21:48:33;;;;;;;13.88;4.15;;;;;;;11.26;80.54;101946.66;10456898;28;20044;-79
2022/06/12 21:58:52;;;;;;;9.20;4.07;;;;;;;11.16;80.55;101939.03;10489596;28;20044;-79
2022/06/12 22:03:53;;;;;;;6.00;2.55;;;;;;;11.11;81.99;101940.47;10473076;28;20037;-80
2022/06/12 22:08:53;;;;;;;6.80;2.80;;;;;;;10.91;83.39;101939.19;10490658;28;20060;-79
2022/06/12 22:13:54;;;;;;;7.43;3.75;;;;;;;10.70;84.08;101935.31;10471763;28;20039;-80
2022/06/12 22:18:54;;;;;;;9.50;3.20;;;;;;;10.52;84.80;101932.41;10471821;28;20041;-79
2022/06/12 22:23:56;;;;;;;7.15;3.38;;;;;;;10.36;85.43;101933.09;10472408;28;20035;-79
2022/06/12 22:28:56;;;;;;;6.63;4.68;;;;;;;10.21;85.02;101932.97;10489245;28;20035;-81
2022/06/12 22:33:57;;;;;;;6.32;4.63;;;;;;;10.04;86.46;101923.09;10453846;28;20054;-80
2022/06/12 22:38:58;;;;;;;6.32;3.67;;;;;;;9.86;87.58;101928.91;10455644;28;20029;-79
2022/06/12 22:43:58;;;;;;;10.02;3.78;;;;;;;9.73;87.97;101921.97;10454447;28;20064;-80
2022/06/12 22:49:01;;;;;;;9.25;4.47;;;;;;;9.72;89.03;101911.38;10453722;28;20384;-80
2022/06/12 22:54:01;;;;;;;5.00;3.10;;;;;;;9.58;88.96;101919.19;10452889;28;20127;-79
2022/06/12 22:59:04;;;;;;;11.57;4.15;;;;;;;9.47;90.01;101918.47;10471570;28;20025;-79
2022/06/12 23:04:04;;;;;;;10.32;4.45;;;;;;;9.51;90.74;101919.56;10470972;28;20040;-79
2022/06/12 23:09:05;;;;;;;10.23;4.72;;;;;;;9.43;91.43;101920.75;10487244;28;20060;-79
2022/06/12 23:14:06;;;;;;;9.68;5.20;;;;;;;9.24;91.03;101930.84;10453142;28;20048;-79
2022/06/12 23:19:06;;;;;;;8.35;3.80;;;;;;;9.07;91.24;101942.69;10437210;28;20062;-79
2022/06/12 23:24:07;;;;;;;13.45;5.03;;;;;;;8.96;92.16;101949.78;10486774;28;20040;-79
2022/06/12 23:29:07;;;;;;;13.82;5.38;;;;;;;8.94;92.92;101942.63;10487454;28;20115;-79
2022/06/12 23:34:08;;;;;;;11.55;6.30;;;;;;;8.89;93.50;101946.59;10453048;28;20541;-79
2022/06/12 23:39:08;;;;;;;9.93;5.10;;;;;;;8.86;94.11;101944.69;10435703;28;20468;-79
2022/06/12 23:44:09;;;;;;;12.80;5.43;;;;;;;8.82;94.49;101934.81;10486458;28;20067;-80
2022/06/12 23:49:10;;;;;;;11.75;5.40;;;;;;;8.79;94.84;101924.16;10469276;28;20040;-80